Pleasant Valley, Virginia
Current Conditions -  °F | °C
As of 1:55 AM on Monday 24 Nov 2014 (Local Time) from KVBW Reporting Station
Overcast Overcast  
Wind Chill: 50°   Ceiling: 800
Heat Index: 50°   Visibility: 10mi
Dew Point: 49°   Wind: 0mph
Humidity: 97%   Direction: NA
Pressure: 29.63"   Gusts: NA
Location:  38.38°N, 78.9°W
Report Text: KVBW 240655Z AUTO 00000KT 10SM OVC008 10/10 A2963 RMK AO2 P0001 T01000095
Loading
Personal Weather Stations






























Interactive Weather Map New forecast layout! Learn more

10-Day Weather Forecast

Advertisements
Track Severe Weather on mobile